createdAt,value
2018-07-01T00:01:57.689Z,56.58
2018-07-01T00:04:25.114Z,56.67
2018-07-01T00:06:52.567Z,56.98
2018-07-01T00:09:20.132Z,56.68
2018-07-01T00:11:47.619Z,56.87
2018-07-01T00:14:15.082Z,57.00
2018-07-01T00:16:42.538Z,57.21
2018-07-01T00:19:09.962Z,57.12
2018-07-01T00:21:37.690Z,56.85
2018-07-01T00:24:05.140Z,56.96
2018-07-01T00:26:32.582Z,57.28
2018-07-01T00:29:00.041Z,57.49
2018-07-01T00:31:27.600Z,57.65
2018-07-01T00:33:55.096Z,57.49
2018-07-01T00:36:22.679Z,57.80
2018-07-01T00:38:50.312Z,57.50
2018-07-01T00:41:17.723Z,56.28
2018-07-01T00:43:45.216Z,57.73
2018-07-01T00:46:12.937Z,58.70
2018-07-01T00:48:40.415Z,58.96
2018-07-01T00:51:07.865Z,59.20
2018-07-01T00:53:35.277Z,59.46
2018-07-01T00:56:02.828Z,59.84
2018-07-01T00:58:30.272Z,60.03
2018-07-01T01:00:57.735Z,60.28
2018-07-01T01:03:25.176Z,60.71
2018-07-01T01:05:52.788Z,61.30
2018-07-01T01:08:20.287Z,61.74
2018-07-01T01:10:47.764Z,61.91
2018-07-01T01:13:15.279Z,62.31
2018-07-01T01:15:42.693Z,62.20
2018-07-01T01:18:10.164Z,62.30
2018-07-01T01:20:37.604Z,62.31
2018-07-01T01:23:05.064Z,62.41
2018-07-01T01:25:32.716Z,62.40
2018-07-01T01:28:00.208Z,62.48
2018-07-01T01:30:27.718Z,62.61
2018-07-01T01:32:55.129Z,62.60
2018-07-01T01:35:22.663Z,62.28
2018-07-01T01:37:50.142Z,62.53
2018-07-01T01:40:17.604Z,62.84
2018-07-01T01:42:45.040Z,63.06
2018-07-01T01:45:12.573Z,63.26
2018-07-01T01:47:40.977Z,63.34
2018-07-01T01:50:08.463Z,63.11
2018-07-01T01:52:35.916Z,63.38
2018-07-01T01:55:03.372Z,63.32
2018-07-01T01:57:30.833Z,63.29
2018-07-01T01:59:58.365Z,63.19
2018-07-01T02:02:25.782Z,63.42
2018-07-01T02:04:53.203Z,63.18
2018-07-01T02:07:20.664Z,63.10
2018-07-01T02:09:48.117Z,63.79
2018-07-01T02:12:15.639Z,64.07
2018-07-01T02:14:43.112Z,64.42
2018-07-01T02:17:10.597Z,64.61
2018-07-01T02:19:38.095Z,64.45
2018-07-01T02:22:05.563Z,64.31
2018-07-01T02:24:33.009Z,64.26
2018-07-01T02:27:00.508Z,63.90
2018-07-01T02:29:27.967Z,63.67
2018-07-01T02:31:55.472Z,63.69
2018-07-01T02:34:22.952Z,64.08
2018-07-01T02:36:50.405Z,64.45
2018-07-01T02:39:18.010Z,64.28
2018-07-01T02:41:45.501Z,64.28
2018-07-01T02:44:12.933Z,64.14
2018-07-01T02:46:40.409Z,64.34
2018-07-01T02:49:07.964Z,64.51
2018-07-01T02:51:35.410Z,64.72
2018-07-01T02:54:02.866Z,64.98
2018-07-01T02:56:31.223Z,65.00
2018-07-01T02:58:58.698Z,65.03
2018-07-01T03:01:26.102Z,65.05
2018-07-01T03:03:53.550Z,64.74
2018-07-01T03:06:21.005Z,64.72
2018-07-01T03:08:48.463Z,64.45
2018-07-01T03:11:15.880Z,64.36
2018-07-01T03:13:43.344Z,64.36
2018-07-01T03:16:10.854Z,64.68
2018-07-01T03:18:38.355Z,64.84
2018-07-01T03:21:05.796Z,65.08
2018-07-01T03:23:33.206Z,65.25
2018-07-01T03:26:00.760Z,65.34
2018-07-01T03:28:28.214Z,65.61
2018-07-01T03:30:55.742Z,65.64
2018-07-01T03:33:23.150Z,65.75
2018-07-01T03:35:50.623Z,65.46
2018-07-01T03:38:18.337Z,64.96
2018-07-01T03:40:45.806Z,64.94
2018-07-01T03:43:13.230Z,64.82
2018-07-01T03:45:40.684Z,64.93
2018-07-01T03:48:08.188Z,64.82
2018-07-01T03:50:35.694Z,64.61
2018-07-01T03:53:03.289Z,64.38
2018-07-01T03:55:30.760Z,64.33
2018-07-01T03:57:58.240Z,64.50
2018-07-01T04:00:25.660Z,64.48
2018-07-01T04:02:53.080Z,64.62
2018-07-01T04:05:20.530Z,64.52
2018-07-01T04:07:48.038Z,64.59
2018-07-01T04:10:15.478Z,64.84
2018-07-01T04:12:43.072Z,64.89
2018-07-01T04:15:10.605Z,64.77
2018-07-01T04:17:38.037Z,64.47
2018-07-01T04:20:05.542Z,64.61
2018-07-01T04:22:33.024Z,64.77
2018-07-01T04:25:00.474Z,64.73
2018-07-01T04:27:27.969Z,64.72
2018-07-01T04:29:55.653Z,64.81
2018-07-01T04:32:23.103Z,63.47
2018-07-01T04:34:50.575Z,64.36
2018-07-01T04:37:18.238Z,64.20
2018-07-01T04:39:45.697Z,64.25
2018-07-01T04:42:13.103Z,64.19
2018-07-01T04:44:41.298Z,63.91
2018-07-01T04:47:08.811Z,63.56
2018-07-01T04:49:36.225Z,63.35
2018-07-01T04:52:03.669Z,62.92
2018-07-01T04:54:31.129Z,62.66
2018-07-01T04:56:58.563Z,62.37
2018-07-01T04:59:26.015Z,61.16
2018-07-01T05:01:53.520Z,60.38
2018-07-01T05:04:20.981Z,60.43
2018-07-01T05:06:48.448Z,59.93
2018-07-01T05:09:15.993Z,59.32
2018-07-01T05:11:43.442Z,58.89
2018-07-01T05:14:10.923Z,59.02
2018-07-01T05:16:38.358Z,59.59
2018-07-01T05:19:05.784Z,59.22
2018-07-01T05:21:33.217Z,59.10
2018-07-01T05:24:00.679Z,59.22
2018-07-01T05:26:28.095Z,59.52
2018-07-01T05:28:55.541Z,59.32
2018-07-01T05:31:23.016Z,59.08
2018-07-01T05:33:50.473Z,58.69
2018-07-01T05:36:17.846Z,58.60
2018-07-01T05:38:45.336Z,58.06
2018-07-01T05:41:12.849Z,57.83
2018-07-01T05:43:40.359Z,57.12
2018-07-01T05:46:07.779Z,57.14
2018-07-01T05:48:35.219Z,56.83
2018-07-01T05:51:02.658Z,56.94
2018-07-01T05:53:30.091Z,56.57
2018-07-01T05:55:57.578Z,56.11
2018-07-01T05:58:25.013Z,55.89
2018-07-01T06:00:52.443Z,55.91
2018-07-01T06:03:20.173Z,55.94
2018-07-01T06:05:47.582Z,55.62
2018-07-01T06:08:15.066Z,55.44
2018-07-01T06:10:42.526Z,54.33
2018-07-01T06:13:10.026Z,53.69
2018-07-01T06:15:37.495Z,53.21
2018-07-01T06:18:04.987Z,52.75
2018-07-01T06:20:32.453Z,52.49
2018-07-01T06:23:00.369Z,52.19
2018-07-01T06:25:27.887Z,52.03
2018-07-01T06:27:55.358Z,51.72
2018-07-01T06:30:22.861Z,51.36
2018-07-01T06:32:50.339Z,51.11
2018-07-01T06:35:17.958Z,51.06
2018-07-01T06:37:45.416Z,50.75
2018-07-01T06:40:12.985Z,49.99
2018-07-01T06:42:40.439Z,50.02
2018-07-01T06:45:08.002Z,49.64
2018-07-01T06:47:35.539Z,49.14
2018-07-01T06:50:03.041Z,48.79
2018-07-01T06:52:30.521Z,48.83
2018-07-01T06:54:58.031Z,48.48
2018-07-01T06:57:26.614Z,48.09
2018-07-01T06:59:54.095Z,47.17
2018-07-01T07:02:21.669Z,46.41
2018-07-01T07:04:49.078Z,46.17
2018-07-01T07:07:16.579Z,45.61
2018-07-01T07:09:44.068Z,45.58
2018-07-01T07:12:11.562Z,45.12
2018-07-01T07:14:39.019Z,44.04
2018-07-01T07:17:06.436Z,43.48
2018-07-01T07:19:33.849Z,42.52
2018-07-01T07:22:01.320Z,42.19
2018-07-01T07:24:28.773Z,42.17
2018-07-01T07:26:56.233Z,42.37
2018-07-01T07:29:23.678Z,42.56
2018-07-01T07:31:51.130Z,42.42
2018-07-01T07:34:19.087Z,41.80
2018-07-01T07:36:46.536Z,41.01
2018-07-01T07:39:14.011Z,40.77
2018-07-01T07:41:41.510Z,40.56
2018-07-01T07:44:08.961Z,40.12
2018-07-01T07:46:35.919Z,40.72
2018-07-01T07:49:02.932Z,40.00
2018-07-01T07:51:29.898Z,39.21
2018-07-01T07:53:57.332Z,38.97
2018-07-01T07:56:24.757Z,38.31
2018-07-01T07:58:52.443Z,37.88
2018-07-01T08:01:20.064Z,37.12
2018-07-01T08:03:47.573Z,36.97
2018-07-01T08:06:15.102Z,37.99
2018-07-01T08:08:42.570Z,38.72
2018-07-01T08:11:10.046Z,38.95
2018-07-01T08:13:37.497Z,38.14
2018-07-01T08:16:05.185Z,37.11
2018-07-01T08:18:32.199Z,36.80
2018-07-01T08:20:59.225Z,36.93
2018-07-01T08:23:26.251Z,36.61
2018-07-01T08:25:53.778Z,36.15
2018-07-01T08:28:21.235Z,37.46
2018-07-01T08:30:48.695Z,38.25
2018-07-01T08:33:16.795Z,38.17
2018-07-01T08:35:44.239Z,38.00
2018-07-01T08:38:11.746Z,38.00
2018-07-01T08:40:39.331Z,38.39
2018-07-01T08:43:06.811Z,38.89
2018-07-01T08:45:35.154Z,39.43
2018-07-01T08:48:02.692Z,38.51
2018-07-01T08:50:30.168Z,38.75
2018-07-01T08:52:57.740Z,38.67
2018-07-01T08:55:25.252Z,38.72
2018-07-01T08:57:52.725Z,38.91
2018-07-01T09:00:20.237Z,38.65
2018-07-01T09:02:47.668Z,38.27
2018-07-01T09:05:15.285Z,38.39
2018-07-01T09:07:43.700Z,37.90
2018-07-01T09:10:11.187Z,37.74
2018-07-01T09:12:38.769Z,37.50
2018-07-01T09:15:06.366Z,37.17
2018-07-01T09:17:33.849Z,36.82
2018-07-01T09:20:01.338Z,37.21
2018-07-01T09:22:28.778Z,37.27
2018-07-01T09:24:56.264Z,37.64
2018-07-01T09:27:23.925Z,37.26
2018-07-01T09:29:51.353Z,37.86
2018-07-01T09:32:18.846Z,38.18
2018-07-01T09:34:46.384Z,38.36
2018-07-01T09:37:13.936Z,38.39
2018-07-01T09:39:41.451Z,38.38
2018-07-01T09:42:08.946Z,38.75
2018-07-01T09:44:36.485Z,39.57
2018-07-01T09:47:03.927Z,39.89
2018-07-01T09:49:31.446Z,39.06
2018-07-01T09:51:59.003Z,38.70
2018-07-01T09:54:26.516Z,38.94
2018-07-01T09:56:53.968Z,39.34
2018-07-01T09:59:21.494Z,38.80
2018-07-01T10:01:48.959Z,38.85
2018-07-01T10:04:16.473Z,39.03
2018-07-01T10:06:43.952Z,38.93
2018-07-01T10:09:11.375Z,38.69
2018-07-01T10:11:39.451Z,38.29
2018-07-01T10:14:07.632Z,38.46
2018-07-01T10:16:35.154Z,37.71
2018-07-01T10:19:03.892Z,37.43
2018-07-01T10:21:31.366Z,37.29
2018-07-01T10:23:58.782Z,37.65
2018-07-01T10:26:26.413Z,36.89
2018-07-01T10:28:54.035Z,36.69
2018-07-01T10:31:21.457Z,36.81
2018-07-01T10:33:48.948Z,36.52
2018-07-01T10:36:16.490Z,36.19
2018-07-01T10:38:43.977Z,36.05
2018-07-01T10:41:11.405Z,37.09
2018-07-01T10:43:38.878Z,37.20
2018-07-01T10:46:07.594Z,36.57
2018-07-01T10:48:35.116Z,37.20
2018-07-01T10:51:02.558Z,36.87
2018-07-01T10:53:29.983Z,36.92
2018-07-01T10:55:57.448Z,36.34
2018-07-01T10:58:24.912Z,35.95
2018-07-01T11:00:52.511Z,36.30
2018-07-01T11:03:19.985Z,36.11
2018-07-01T11:05:47.473Z,35.87
2018-07-01T11:08:14.891Z,35.07
2018-07-01T11:10:42.363Z,34.98
2018-07-01T11:13:09.813Z,35.28
2018-07-01T11:15:37.370Z,34.90
2018-07-01T11:18:04.783Z,34.90
2018-07-01T11:20:32.209Z,34.73
2018-07-01T11:23:00.844Z,34.77
2018-07-01T11:25:28.306Z,33.99
2018-07-01T11:27:55.747Z,34.14
2018-07-01T11:30:23.280Z,34.60
2018-07-01T11:32:50.816Z,33.72
2018-07-01T11:35:18.236Z,33.95
2018-07-01T11:37:45.736Z,33.47
2018-07-01T11:40:13.166Z,32.80
2018-07-01T11:42:40.733Z,33.04
2018-07-01T11:45:08.240Z,32.55
2018-07-01T11:47:35.710Z,32.02
2018-07-01T11:50:03.180Z,31.92
2018-07-01T11:52:30.772Z,32.12
2018-07-01T11:54:58.199Z,31.83
2018-07-01T11:57:25.703Z,31.37
2018-07-01T11:59:53.247Z,30.79
2018-07-01T12:02:20.708Z,31.04
2018-07-01T12:05:02.955Z,30.69
2018-07-01T12:07:15.698Z,31.10
2018-07-01T12:09:43.101Z,31.30
2018-07-01T12:12:10.559Z,31.21
2018-07-01T12:14:38.078Z,30.46
2018-07-01T12:17:05.651Z,30.29
2018-07-01T12:19:33.200Z,30.12
2018-07-01T12:22:00.679Z,29.80
2018-07-01T12:24:28.330Z,30.20
2018-07-01T12:26:55.792Z,29.50
2018-07-01T12:29:23.294Z,29.19
2018-07-01T12:31:50.800Z,28.96
2018-07-01T12:34:18.673Z,28.59
2018-07-01T12:36:46.203Z,29.00
2018-07-01T12:39:13.682Z,29.07
2018-07-01T12:41:41.139Z,28.94
2018-07-01T12:44:08.617Z,29.26
2018-07-01T12:46:36.864Z,30.14
2018-07-01T12:49:04.346Z,29.73
2018-07-01T12:51:31.844Z,29.27
2018-07-01T12:53:59.311Z,28.63
2018-07-01T12:56:26.764Z,28.91
2018-07-01T12:58:54.172Z,28.72
2018-07-01T13:01:21.626Z,28.23
2018-07-01T13:03:49.274Z,28.09
2018-07-01T13:06:17.577Z,27.84
2018-07-01T13:08:45.077Z,27.55
2018-07-01T13:11:12.494Z,27.69
2018-07-01T13:13:39.980Z,27.47
2018-07-01T13:16:07.954Z,27.30
2018-07-01T13:18:35.520Z,27.62
2018-07-01T13:21:02.959Z,27.70
2018-07-01T13:23:30.701Z,27.96
2018-07-01T13:25:58.225Z,28.04
2018-07-01T13:28:26.762Z,28.11
2018-07-01T13:30:54.260Z,28.44
2018-07-01T13:33:21.718Z,28.74
2018-07-01T13:35:49.229Z,28.56
2018-07-01T13:38:16.699Z,28.48
2018-07-01T13:40:44.359Z,28.29
2018-07-01T13:43:11.834Z,28.50
2018-07-01T13:45:39.527Z,28.37
2018-07-01T13:48:07.026Z,28.50
2018-07-01T13:50:34.614Z,28.93
2018-07-01T13:53:02.124Z,28.93
2018-07-01T13:55:30.518Z,28.77
2018-07-01T13:57:58.216Z,29.59
2018-07-01T14:00:25.778Z,29.69
2018-07-01T14:02:53.266Z,29.08
2018-07-01T14:05:20.823Z,29.30
2018-07-01T14:07:48.345Z,29.26
2018-07-01T14:10:15.795Z,29.41
2018-07-01T14:12:43.297Z,29.11
2018-07-01T14:15:10.750Z,28.88
2018-07-01T14:17:38.204Z,29.05
2018-07-01T14:20:05.735Z,29.22
2018-07-01T14:22:33.191Z,28.86
2018-07-01T14:25:00.688Z,28.95
2018-07-01T14:27:28.844Z,29.15
2018-07-01T14:29:56.305Z,29.70
2018-07-01T14:32:23.782Z,29.35
2018-07-01T14:34:53.074Z,29.23
2018-07-01T14:37:20.636Z,29.35
2018-07-01T14:39:48.090Z,29.09
2018-07-01T14:42:15.613Z,28.95
2018-07-01T14:44:43.170Z,29.04
2018-07-01T14:47:10.596Z,28.65
2018-07-01T14:49:38.087Z,28.57
2018-07-01T14:52:05.593Z,28.27
2018-07-01T14:54:33.319Z,28.21
2018-07-01T14:57:00.828Z,27.78
2018-07-01T14:59:28.445Z,28.21
2018-07-01T15:01:55.898Z,28.24
2018-07-01T15:04:23.614Z,28.02
2018-07-01T15:06:51.271Z,27.87
2018-07-01T15:09:18.707Z,27.67
2018-07-01T15:11:46.314Z,27.58
2018-07-01T15:14:13.899Z,27.33
2018-07-01T15:16:41.559Z,27.58
2018-07-01T15:19:09.007Z,28.09
2018-07-01T15:21:36.462Z,28.42
2018-07-01T15:24:03.968Z,29.12
2018-07-01T15:26:31.429Z,29.04
2018-07-01T15:28:58.904Z,29.02
2018-07-01T15:31:26.404Z,28.41
2018-07-01T15:33:53.892Z,27.78
2018-07-01T15:36:21.407Z,27.66
2018-07-01T15:38:49.203Z,28.02
2018-07-01T15:41:16.697Z,27.53
2018-07-01T15:43:44.111Z,26.79
2018-07-01T15:46:11.763Z,27.26
2018-07-01T15:48:39.777Z,26.96
2018-07-01T15:51:07.249Z,26.95
2018-07-01T15:53:34.722Z,26.50
2018-07-01T15:56:02.180Z,25.88
2018-07-01T15:58:29.753Z,25.29
2018-07-01T16:00:57.313Z,24.83
2018-07-01T16:03:24.799Z,24.62
2018-07-01T16:05:52.330Z,24.72
2018-07-01T16:08:19.870Z,25.37
2018-07-01T16:10:47.369Z,26.26
2018-07-01T16:13:14.826Z,27.38
2018-07-01T16:15:42.400Z,28.07
2018-07-01T16:18:09.865Z,28.65
2018-07-01T16:20:37.311Z,28.33
2018-07-01T16:23:05.688Z,28.01
2018-07-01T16:25:33.193Z,27.14
2018-07-01T16:28:00.736Z,27.01
2018-07-01T16:30:28.196Z,27.00
2018-07-01T16:32:55.816Z,27.74
2018-07-01T16:35:23.340Z,28.21
2018-07-01T16:37:50.803Z,27.79
2018-07-01T16:40:18.268Z,27.27
2018-07-01T16:42:45.839Z,26.63
2018-07-01T16:45:13.354Z,25.76
2018-07-01T16:47:40.851Z,25.83
2018-07-01T16:50:08.597Z,25.71
2018-07-01T16:52:36.025Z,25.67
2018-07-01T16:55:03.597Z,25.40
2018-07-01T16:57:31.163Z,25.28
2018-07-01T16:59:59.160Z,24.90
2018-07-01T17:02:26.797Z,24.94
2018-07-01T17:04:54.343Z,25.13
2018-07-01T17:07:22.730Z,25.34
2018-07-01T17:09:50.171Z,25.26
2018-07-01T17:12:17.687Z,25.93
2018-07-01T17:14:45.432Z,24.96
2018-07-01T17:17:12.891Z,25.51
2018-07-01T17:19:40.498Z,25.89
2018-07-01T17:22:08.139Z,24.65
2018-07-01T17:24:35.614Z,25.08
2018-07-01T17:27:03.120Z,25.77
2018-07-01T17:29:31.023Z,26.58
2018-07-01T17:31:58.481Z,26.99
2018-07-01T17:34:25.945Z,27.07
2018-07-01T17:36:53.459Z,27.27
2018-07-01T17:39:21.819Z,27.63
2018-07-01T17:41:49.294Z,28.08
2018-07-01T17:44:16.722Z,28.38
2018-07-01T17:46:44.315Z,28.31
2018-07-01T17:49:11.886Z,28.11
2018-07-01T17:51:39.509Z,28.10
2018-07-01T17:54:06.987Z,27.87
2018-07-01T17:56:34.802Z,28.60
2018-07-01T17:59:02.682Z,29.39
2018-07-01T18:01:30.134Z,28.83
2018-07-01T18:03:57.796Z,28.90
2018-07-01T18:06:25.310Z,29.11
2018-07-01T18:08:52.783Z,29.26
2018-07-01T18:11:20.298Z,28.87
2018-07-01T18:13:47.764Z,28.78
2018-07-01T18:16:15.223Z,27.92
2018-07-01T18:18:43.374Z,27.41
2018-07-01T18:21:10.988Z,27.53
2018-07-01T18:24:11.133Z,27.91
2018-07-01T18:26:05.920Z,28.97
2018-07-01T18:28:45.187Z,30.15
2018-07-01T18:31:01.264Z,30.43
2018-07-01T18:33:28.711Z,30.62
2018-07-01T18:35:56.143Z,30.74
2018-07-01T18:38:23.577Z,30.31
2018-07-01T18:40:51.726Z,30.62
2018-07-01T18:43:18.798Z,30.68
2018-07-01T18:45:46.357Z,30.22
2018-07-01T18:48:13.867Z,30.14
2018-07-01T18:50:41.394Z,29.12
2018-07-01T18:53:08.946Z,27.77
2018-07-01T18:55:36.724Z,27.64
2018-07-01T18:58:04.307Z,27.98
2018-07-01T19:00:31.828Z,29.63
2018-07-01T19:02:59.322Z,31.11
2018-07-01T19:05:26.781Z,32.15
2018-07-01T19:07:54.260Z,32.59
2018-07-01T19:10:22.846Z,33.07
2018-07-01T19:12:50.647Z,33.46
2018-07-01T19:15:18.294Z,33.32
2018-07-01T19:17:46.699Z,33.02
2018-07-01T19:20:14.321Z,32.48
2018-07-01T19:22:41.899Z,32.23
2018-07-01T19:25:09.457Z,32.17
2018-07-01T19:27:37.237Z,32.00
2018-07-01T19:30:04.687Z,32.09
2018-07-01T19:32:32.181Z,32.41
2018-07-01T19:34:59.695Z,32.87
2018-07-01T19:37:27.185Z,33.50
2018-07-01T19:39:54.657Z,34.08
2018-07-01T19:42:22.159Z,34.73
2018-07-01T19:44:49.646Z,35.21
2018-07-01T19:47:17.189Z,35.32
2018-07-01T19:49:44.652Z,35.77
2018-07-01T19:52:12.135Z,36.28
2018-07-01T19:54:39.602Z,36.56
2018-07-01T19:57:07.121Z,37.01
2018-07-01T19:59:34.619Z,37.60
2018-07-01T20:02:02.095Z,37.59
2018-07-01T20:04:29.536Z,37.88
2018-07-01T20:06:57.069Z,38.08
2018-07-01T20:09:24.504Z,38.13
2018-07-01T20:11:53.216Z,38.51
2018-07-01T20:14:21.555Z,38.72
2018-07-01T20:16:49.050Z,38.93
2018-07-01T20:19:16.503Z,39.05
2018-07-01T20:21:45.319Z,39.28
2018-07-01T20:24:12.886Z,39.60
2018-07-01T20:26:40.471Z,39.78
2018-07-01T20:29:07.906Z,39.44
2018-07-01T20:31:35.473Z,39.25
2018-07-01T20:34:02.991Z,39.18
2018-07-01T20:36:30.520Z,39.32
2018-07-01T20:38:58.072Z,38.97
2018-07-01T20:41:26.247Z,39.47
2018-07-01T20:43:53.792Z,39.62
2018-07-01T20:46:21.373Z,39.95
2018-07-01T20:48:48.963Z,40.43
2018-07-01T20:51:16.490Z,40.58
2018-07-01T20:53:44.096Z,40.56
2018-07-01T20:56:11.725Z,40.79
2018-07-01T20:58:39.278Z,41.75
2018-07-01T21:01:06.922Z,41.86
2018-07-01T21:03:34.443Z,42.33
2018-07-01T21:06:01.901Z,42.94
2018-07-01T21:08:29.353Z,42.56
2018-07-01T21:10:56.894Z,42.69
2018-07-01T21:13:24.359Z,43.10
2018-07-01T21:15:51.945Z,42.61
2018-07-01T21:18:19.412Z,43.15
2018-07-01T21:20:46.881Z,42.74
2018-07-01T21:23:14.316Z,42.75
2018-07-01T21:25:41.752Z,42.64
2018-07-01T21:28:09.358Z,42.58
2018-07-01T21:30:36.835Z,42.68
2018-07-01T21:33:04.948Z,42.83
2018-07-01T21:35:32.479Z,43.01
2018-07-01T21:38:00.116Z,43.34
2018-07-01T21:40:27.629Z,43.54
2018-07-01T21:42:55.055Z,43.52
2018-07-01T21:45:22.624Z,43.56
2018-07-01T21:47:50.043Z,43.62
2018-07-01T21:50:17.526Z,43.65
2018-07-01T21:52:44.985Z,43.85
2018-07-01T21:55:12.460Z,44.09
2018-07-01T21:57:40.012Z,44.26
2018-07-01T22:00:07.486Z,44.37
2018-07-01T22:02:34.927Z,44.54
2018-07-01T22:05:02.364Z,44.80
2018-07-01T22:07:29.857Z,45.09
2018-07-01T22:09:57.344Z,45.26
2018-07-01T22:12:37.169Z,45.81
2018-07-01T22:15:16.399Z,46.50
2018-07-01T22:17:43.868Z,46.76
2018-07-01T22:22:45.169Z,47.10
2018-07-01T22:25:12.890Z,46.96
2018-07-01T22:27:40.921Z,47.13
2018-07-01T22:30:08.408Z,47.27
2018-07-01T22:32:36.286Z,47.43
2018-07-01T22:35:03.717Z,47.72
2018-07-01T22:37:31.142Z,47.82
2018-07-01T22:39:58.686Z,48.07
2018-07-01T22:42:26.176Z,48.41
2018-07-01T22:44:53.816Z,49.15
2018-07-01T22:47:21.249Z,49.29
2018-07-01T22:49:48.709Z,49.38
2018-07-01T22:52:16.179Z,49.74
2018-07-01T22:54:43.693Z,50.06
2018-07-01T22:57:11.196Z,49.83
2018-07-01T22:59:39.872Z,50.30
2018-07-01T23:02:07.327Z,50.89
2018-07-01T23:04:34.783Z,50.87
2018-07-01T23:07:02.240Z,51.07
2018-07-01T23:09:29.728Z,51.53
2018-07-01T23:11:57.239Z,51.60
2018-07-01T23:14:24.746Z,51.40
2018-07-01T23:16:52.192Z,51.39
2018-07-01T23:19:19.659Z,51.16
2018-07-01T23:21:47.168Z,51.53
2018-07-01T23:24:14.616Z,52.08
2018-07-01T23:26:42.161Z,52.47
2018-07-01T23:29:09.656Z,52.99
2018-07-01T23:31:37.147Z,53.15
2018-07-01T23:34:04.697Z,53.05
2018-07-01T23:36:32.215Z,53.51
2018-07-01T23:38:59.689Z,53.61
2018-07-01T23:41:27.156Z,53.61
2018-07-01T23:43:54.632Z,53.81
2018-07-01T23:46:22.165Z,54.19
2018-07-01T23:48:49.614Z,54.27
2018-07-01T23:51:17.083Z,54.36
2018-07-01T23:53:44.540Z,55.05
2018-07-01T23:56:11.996Z,55.13
2018-07-01T23:58:39.539Z,55.33
